Simbrief Flight Plan

Flight Plan Options
Generated Flight Plan
Copies the generated flight plan to your device clipboard. Go to Infinite Flight, go to the map, press on the search box, long press in the popup text box and select paste, press ok.

Copies the URL to your clipboard for sharing.

Please login in order to save your plan to fpltoif.

New Flight

Flight Plan Summary

  Departure Arrival
Airport Code KSMF PHKO
Elevation 27 47
Planned Runway 17R 17
Current Weather 2022/06/28 14:53
KSMF 281453Z 15007KT 10SM CLR 21/10 A2998 RMK AO2 SLP152 T02110100 53008
2022/06/28 14:53
PHKO 281453Z AUTO 00000KT 10SM CLR 23/19 A3001 RMK AO2 SLP160 T02280189 55001 TSNO
SID/STAR (SID) VECKI9 (STAR)
Aircraft B737-8H4
Flight Level 36,000
Plan Distance 2,197 NM
Flight Time 5:37
Block Fuel 38,331 lbs
V-Speeds (KIAS) V1=N/A    VR=N/A    V2=N/A
V-Speeds are not available with certain aircraft. When using Simbrief Classic, please change plan fomat to JBU
Climb Profile 250/280/78
Descent Profile 78/280/250
Passenger Count 122
Cargo Weight 7,400 lbs
Notes
System Remarks

Flight Plan Details

Waypoint
Stage
Status
IF FPL
Altitude
Airspeed
Mach Speed
VS to Next
Rem Dist
Delete
WPT
Add SID/STAR Waypoints

You can automatically add published SID/STARs into your plan. Select the SID and/or STAR you wish and press the insert button. The recommended SID/STAR for the runway is shown as a guide. Not all airports have SID/STARs available. SID/STAR waypoints that are already in the genereated plan will be ignored.

Due to different versions between SimBrief and the SID/STAR source names may not match 100%. For example, JASPA5 may be the same as JASPA7 if 5 does not exist.

Select SID
Recommended:
17R
Select STAR
Recommended:
VECKI9 17
 
Add Waypoints
Enter in your waypoint, press validate. The system will identify if there are duplicates in the world and show you a list of available waypoints. Select the one you wish to add and which waypoint to add it after.
Search for Waypoint
Select Waypoint
Add after:
 
Airport Diagrams
Airport diagram availability may be limited to North America only.
KSMF
PHKO
Route Map
Vertical Profile Map

This flight plan is for the use in ForeFlight.

ForeFlight Compatible Plan